Time;durP1;ratioP1;P1;durP2;ratioP2;P2;SDS_P1;SDS_P2;PMS_P1;PMS_P2;Temp;Humidity;BMP_temperature;BMP_pressure;BME280_temperature;BME280_humidity;BME280_pressure;Samples;Min_cycle;Max_cycle;Signal;HPM_P1;HPM_P2
2021/08/16 00:01:15;;;;;;;12.73;6.20;;;;;;;18.78;70.52;99860.17;21207567;80;99293;-84
2021/08/16 00:31:16;;;;;;;10.73;5.00;;;;;;;18.94;69.75;99801.50;21146710;81;99358;-84
2021/08/16 01:01:17;;;;;;;9.37;4.77;;;;;;;19.02;69.99;99767.95;21043723;81;99841;-84
2021/08/16 01:31:18;;;;;;;13.58;5.70;;;;;;;18.75;70.14;99765.50;21044014;82;99133;-84
2021/08/16 02:01:19;;;;;;;12.82;6.33;;;;;;;18.52;71.67;99741.53;21053311;81;99601;-84
2021/08/16 02:31:23;;;;;;;24.50;8.27;;;;;;;18.34;72.16;99702.92;21093474;81;99674;-84
2021/08/16 03:01:23;;;;;;;10.00;6.30;;;;;;;18.20;72.98;99674.88;21206496;82;99648;-84
2021/08/16 03:31:23;;;;;;;14.50;7.28;;;;;;;17.83;73.75;99634.51;21197620;82;99436;-84
2021/08/16 04:01:24;;;;;;;11.00;6.10;;;;;;;17.36;74.82;99603.70;21211096;82;99493;-84
2021/08/16 04:31:25;;;;;;;17.98;11.30;;;;;;;17.06;76.37;99594.44;21128916;80;99735;-83
2021/08/16 05:01:27;;;;;;;21.87;10.23;;;;;;;17.03;77.81;99588.98;21049052;80;99474;-84
2021/08/16 05:31:28;;;;;;;41.67;12.03;;;;;;;17.56;77.68;99572.30;21039049;81;99602;-84
2021/08/16 06:01:33;;;;;;;15.25;7.47;;;;;;;18.40;76.73;99588.30;21010751;81;99778;-83
2021/08/16 06:31:32;;;;;;;15.48;6.75;;;;;;;21.94;71.70;99595.46;21093770;81;99669;-82
2021/08/16 07:01:34;;;;;;;17.60;6.70;;;;;;;23.68;65.12;99600.23;21185719;80;99490;-82
2021/08/16 07:31:36;;;;;;;11.38;4.90;;;;;;;23.97;63.33;99579.16;21151545;80;99828;-82
2021/08/16 08:01:37;;;;;;;9.03;3.62;;;;;;;24.65;59.80;99574.75;20977768;81;99580;-83
2021/08/16 08:31:41;;;;;;;11.65;4.05;;;;;;;25.10;55.99;99566.95;20961192;81;99680;-83
2021/08/16 09:01:52;;;;;;;;;;;;;;;27.23;50.70;99569.70;20957154;81;99437;-90
2021/08/16 09:32:03;;;;;;;8.95;5.15;;;;;;;31.03;40.36;99553.38;20763787;82;85356;-82
2021/08/16 10:02:04;;;;;;;12.68;4.40;;;;;;;32.89;40.06;99540.04;20474868;83;99783;-82
2021/08/16 10:32:09;;;;;;;10.45;3.60;;;;;;;34.82;36.09;99520.92;20630432;82;99610;-85
2021/08/16 11:02:10;;;;;;;11.08;4.03;;;;;;;34.90;32.93;99492.36;20856263;82;99799;-86
2021/08/16 11:32:13;;;;;;;7.05;3.00;;;;;;;34.57;31.19;99456.19;20714250;82;99360;-82
2021/08/16 12:02:14;;;;;;;7.05;3.47;;;;;;;32.91;32.32;99436.23;20498326;83;99459;-87
2021/08/16 12:32:18;;;;;;;10.55;3.70;;;;;;;30.82;34.95;99413.16;20631838;83;99709;-82
2021/08/16 13:02:26;;;;;;;8.25;3.30;;;;;;;30.05;40.48;99432.61;20631754;84;99309;-81
2021/08/16 13:32:27;;;;;;;7.10;3.65;;;;;;;30.13;39.00;99397.44;20555239;82;99174;-81
2021/08/16 14:02:29;;;;;;;10.75;4.20;;;;;;;30.03;39.94;99370.70;20722622;82;99604;-83
2021/08/16 14:32:32;;;;;;;8.70;4.05;;;;;;;30.45;39.51;99359.22;20717213;82;99610;-81
2021/08/16 15:02:35;;;;;;;12.43;3.70;;;;;;;30.05;38.74;99378.05;20535507;83;99491;-82
2021/08/16 15:32:36;;;;;;;10.40;4.25;;;;;;;28.88;39.49;99416.53;21050287;81;99452;-89
2021/08/16 16:02:37;;;;;;;14.80;4.50;;;;;;;28.05;40.57;99404.11;21020356;81;99444;-86
2021/08/16 16:32:38;;;;;;;11.00;3.87;;;;;;;26.86;38.27;99429.28;20789556;81;99219;-83
2021/08/16 17:02:42;;;;;;;11.73;3.40;;;;;;;26.86;38.27;99429.28;20700423;83;99379;-82
2021/08/16 17:32:42;;;;;;;10.38;3.47;;;;;;;26.28;36.87;99449.91;20734064;80;99418;-84
2021/08/16 18:02:43;;;;;;;5.03;2.10;;;;;;;25.46;37.11;99466.30;21171150;81;99248;-85
2021/08/16 18:32:44;;;;;;;8.53;3.77;;;;;;;24.72;38.62;99506.78;21145287;82;99375;-82
2021/08/16 19:02:47;;;;;;;9.25;3.80;;;;;;;23.94;41.88;99531.72;21114052;81;99588;-81
2021/08/16 19:32:48;;;;;;;11.85;4.15;;;;;;;22.94;45.02;99538.25;21102126;82;99130;-82
2021/08/16 20:02:49;;;;;;;9.95;4.35;;;;;;;22.17;47.62;99558.31;21139791;82;99258;-82
2021/08/16 20:32:49;;;;;;;10.20;3.30;;;;;;;21.58;49.38;99585.14;21158178;81;99148;-83
2021/08/16 21:02:50;;;;;;;9.15;3.72;;;;;;;20.38;54.85;99663.61;21165412;82;99414;-85
2021/08/16 21:32:53;;;;;;;9.78;3.42;;;;;;;20.38;54.85;99663.61;21151542;81;99676;-84
2021/08/16 22:02:54;;;;;;;9.43;2.83;;;;;;;19.67;58.47;99706.69;21059368;81;99368;-86
2021/08/16 22:32:56;;;;;;;6.83;2.50;;;;;;;18.62;58.88;99743.20;21036420;81;99518;-82
2021/08/16 23:02:57;;;;;;;6.92;2.10;;;;;;;17.74;59.76;99778.50;21055820;80;100059;-84
2021/08/16 23:32:59;;;;;;;9.33;2.62;;;;;;;17.25;62.18;99788.77;21075892;80;100408;-84
